Terminal Aerodrome Forecast
Issued by NWS

Home | Current Version | Previous Version | Text Only | Print | Product List | Glossary On
Versions: 1 2 3 4 5 6 7 8 9 10 11 12 13 14 15
000
FTUS46 KEKA 251100
TAFCEC
TAF
KCEC 251131Z 2512/2612 34011KT P6SM SKC
     FM251600 31012G20KT P6SM SKC
     FM252200 32012KT P6SM SKC
     FM260300 34008KT P6SM SKC=

USA.gov is the U.S. government's official web portal to all federal, state and local government web resources and services.